Pagrindinis puslapis
METAR-TAF:

METAR-TAF

Oro uostai :

Kordoba, Argentina

platuma: 31-19S, ilguma: 064-13W, Aukštis: 484 m

Dabartinis oras

Ataskaita buvo paskelbta 51 minutes, ne 01:00 UTC
Vėjas 5 kt iš Šiaurės/Šiaurės Vakarų
Temperatūra 5°C
Drėgmė 41%
Slėgis 1026 hPa
Matomumas 10 km arba daugiau
nėra debesų žemiau 1500 m ir nėra kamuolinių lietaus debesų

METAR: SACO 200100Z 33005KT CAVOK 05/M07 Q1026 NOSIG

Laikas: 22:51 (01:51 UTC)

Prognozė

Ataskaita buvo paskelbta 2 valandos ir 51 minutes, ne 23:00 UTC
Prognozė galioja nuo 20 metu 00 UTC su 20 metu 24 UTC
Vėjas 5 kt iš Šiaurės/Šiaurės Vakarų
Matomumas 10 km arba daugiau
nėra debesų žemiau 1500 m ir nėra kamuolinių lietaus debesų
Tapsmas
nuo 20 metu 13 UTC su 20 metu 15 UTC
Vėjas 15 kt iš Šiaurės/Šiaurės Rytų su gūsio iki 25 kt
Tapsmas
nuo 20 metu 21 UTC su 20 metu 23 UTC
Vėjas 5 kt iš Šiaurės/Šiaurės Vakarų

TAF: SACO 192300Z 2000/2024 34005KT CAVOK TX22/2018Z TN03/2010Z BECMG 2013/2015 02015G25KT BECMG 2021/2023 34005KT

Orai ataskaitas ir orų prognozės (METAR, TAF).

turimą stotys yra geltonos ir raudonos taškus žemėlapyje.

Perkelti pele per norėdami pamatyti stoties vardą.

Tada spustelėkite, norėdami matyti oro stebėjimo ir prognozės.

Norėdami pakeisti žemėlapį: spustelėkite ant žalios mygtukų su juodo kryžiaus žemyn,; žalią mygtuką su brūkšneliu, jei norite nutolinti; arba žalių rodyklių gretimoms žemėlapius.


METAR-TAF: